Lorida, Florida
Current Conditions -  °F | °C
As of 8:56 AM on Wednesday 26 Nov 2014 (Local Time) from KBOW Reporting Station
Overcast Overcast  
Wind Chill: 54°   Ceiling: 900
Heat Index: 54°   Visibility: 10mi
Dew Point: 54°   Wind: 15mph
Humidity: 100%   Direction: 310°NW
Pressure: 30.1"   Gusts: NA
Location:  27.44°N, 81.25°W
Report Text: KBOW 261356Z 31013KT 10SM OVC009 12/12 A3010
Loading
Personal Weather Stations






























Interactive Weather Map New forecast layout! Learn more

10-Day Weather Forecast

Advertisements
Track Severe Weather on mobile